createdAt,value
2018-11-07T00:00:08.753Z,3.37
2018-11-07T00:02:37.863Z,5.10
2018-11-07T00:05:07.030Z,7.80
2018-11-07T00:07:36.131Z,10.33
2018-11-07T00:10:06.510Z,3.93
2018-11-07T00:12:35.717Z,3.63
2018-11-07T00:15:05.156Z,6.70
2018-11-07T00:17:34.251Z,5.70
2018-11-07T00:20:03.536Z,3.90
2018-11-07T00:22:32.720Z,7.03
2018-11-07T00:25:01.924Z,6.10
2018-11-07T00:27:31.084Z,8.07
2018-11-07T00:30:00.272Z,5.77
2018-11-07T00:32:29.332Z,6.90
2018-11-07T00:34:58.547Z,3.47
2018-11-07T00:37:27.707Z,5.73
2018-11-07T00:39:56.858Z,4.80
2018-11-07T00:42:26.018Z,4.53
2018-11-07T00:44:55.201Z,5.30
2018-11-07T00:47:24.279Z,3.83
2018-11-07T00:49:53.435Z,5.50
2018-11-07T00:52:22.590Z,7.80
2018-11-07T00:54:51.743Z,5.13
2018-11-07T00:57:20.861Z,4.83
2018-11-07T00:59:50.429Z,8.03
2018-11-07T01:02:19.552Z,3.17
2018-11-07T01:04:48.791Z,5.83
2018-11-07T01:07:17.858Z,6.70
2018-11-07T01:09:47.053Z,3.77
2018-11-07T01:12:16.147Z,3.80
2018-11-07T01:14:45.332Z,5.83
2018-11-07T01:17:14.477Z,6.13
2018-11-07T01:19:43.643Z,4.90
2018-11-07T01:22:12.869Z,8.13
2018-11-07T01:24:42.844Z,4.10
2018-11-07T01:27:11.917Z,3.23
2018-11-07T01:29:41.105Z,7.00
2018-11-07T01:32:10.253Z,4.67
2018-11-07T01:34:39.448Z,3.40
2018-11-07T01:37:08.562Z,6.87
2018-11-07T01:39:37.728Z,6.03
2018-11-07T01:42:06.942Z,6.50
2018-11-07T01:44:36.180Z,9.40
2018-11-07T01:47:05.396Z,6.40
2018-11-07T01:49:34.624Z,10.10
2018-11-07T01:52:03.792Z,5.50
2018-11-07T01:54:32.916Z,7.20
2018-11-07T01:57:02.016Z,4.00
2018-11-07T01:59:31.148Z,5.40
2018-11-07T02:02:00.278Z,5.83
2018-11-07T02:04:29.422Z,4.80
2018-11-07T02:06:58.592Z,4.90
2018-11-07T02:09:27.686Z,5.20
2018-11-07T02:11:56.835Z,5.00
2018-11-07T02:14:26.033Z,5.13
2018-11-07T02:16:55.128Z,4.23
2018-11-07T02:19:24.279Z,4.83
2018-11-07T02:21:53.394Z,6.40
2018-11-07T02:24:22.989Z,4.80
2018-11-07T02:26:52.090Z,4.73
2018-11-07T02:29:21.287Z,6.93
2018-11-07T02:31:50.422Z,3.47
2018-11-07T02:34:19.601Z,4.87
2018-11-07T02:36:48.764Z,6.13
2018-11-07T02:39:17.942Z,6.73
2018-11-07T02:41:47.307Z,2.67
2018-11-07T02:44:16.472Z,3.30
2018-11-07T02:46:45.621Z,3.57
2018-11-07T02:49:14.786Z,7.47
2018-11-07T02:51:43.928Z,4.90
2018-11-07T02:54:13.077Z,4.13
2018-11-07T02:56:42.193Z,5.50
2018-11-07T02:59:11.348Z,5.13
2018-11-07T03:01:40.560Z,5.10
2018-11-07T03:04:09.658Z,4.83
2018-11-07T03:06:38.748Z,4.23
2018-11-07T03:09:09.018Z,4.07
2018-11-07T03:11:38.325Z,4.83
2018-11-07T03:14:08.042Z,6.33
2018-11-07T03:16:37.313Z,8.63
2018-11-07T03:19:06.822Z,6.67
2018-11-07T03:21:35.948Z,5.83
2018-11-07T03:24:05.360Z,3.80
2018-11-07T03:26:34.580Z,6.17
2018-11-07T03:29:03.705Z,5.43
2018-11-07T03:31:32.835Z,5.80
2018-11-07T03:34:01.905Z,4.53
2018-11-07T03:36:31.039Z,6.57
2018-11-07T03:39:00.147Z,6.43
2018-11-07T03:41:29.284Z,4.27
2018-11-07T03:43:58.374Z,4.90
2018-11-07T03:46:27.536Z,4.63
2018-11-07T03:48:56.636Z,5.97
2018-11-07T03:51:25.736Z,7.20
2018-11-07T03:53:54.854Z,5.83
2018-11-07T03:56:24.016Z,4.83
2018-11-07T03:58:53.248Z,8.00
2018-11-07T04:01:22.406Z,4.77
2018-11-07T04:03:51.564Z,5.50
2018-11-07T04:06:20.642Z,3.47
2018-11-07T04:08:49.812Z,5.07
2018-11-07T04:11:18.905Z,4.73
2018-11-07T04:13:48.133Z,9.83
2018-11-07T04:16:17.396Z,5.33
2018-11-07T04:18:46.696Z,7.63
2018-11-07T04:21:15.775Z,3.97
2018-11-07T04:23:53.149Z,3.40
2018-11-07T04:26:22.228Z,6.90
2018-11-07T04:28:51.320Z,8.90
2018-11-07T04:31:20.488Z,5.93
2018-11-07T04:33:49.618Z,3.37
2018-11-07T04:36:18.863Z,2.80
2018-11-07T04:38:48.084Z,3.57
2018-11-07T04:41:17.178Z,6.13
2018-11-07T04:43:46.352Z,6.10
2018-11-07T04:46:15.458Z,5.10
2018-11-07T04:48:44.768Z,7.47
2018-11-07T04:51:14.288Z,4.60
2018-11-07T04:53:43.397Z,7.30
2018-11-07T04:56:12.555Z,5.23
2018-11-07T04:58:41.743Z,4.93
2018-11-07T05:01:10.833Z,3.60
2018-11-07T05:03:40.163Z,8.97
2018-11-07T05:06:09.254Z,6.10
2018-11-07T05:08:38.516Z,7.07
2018-11-07T05:11:07.533Z,8.03
2018-11-07T05:13:36.993Z,6.27
2018-11-07T05:16:06.054Z,3.97
2018-11-07T05:18:35.222Z,4.73
2018-11-07T05:21:04.336Z,4.97
2018-11-07T05:23:33.555Z,6.80
2018-11-07T05:26:03.569Z,4.07
2018-11-07T05:28:32.729Z,24.33
2018-11-07T05:31:01.765Z,2.80
2018-11-07T05:33:30.924Z,5.07
2018-11-07T05:36:00.125Z,6.30
2018-11-07T05:38:29.313Z,6.00
2018-11-07T05:40:58.520Z,10.87
2018-11-07T05:43:28.017Z,7.20
2018-11-07T05:45:57.117Z,2.50
2018-11-07T05:48:26.320Z,7.00
2018-11-07T05:50:55.405Z,5.13
2018-11-07T05:53:24.623Z,8.03
2018-11-07T05:55:54.066Z,6.90
2018-11-07T05:58:23.629Z,3.90
2018-11-07T06:00:52.828Z,5.90
2018-11-07T06:03:21.934Z,8.83
2018-11-07T06:05:51.050Z,4.53
2018-11-07T06:08:20.216Z,3.53
2018-11-07T06:10:49.305Z,4.93
2018-11-07T06:13:18.412Z,7.73
2018-11-07T06:15:47.552Z,3.87
2018-11-07T06:18:16.784Z,6.03
2018-11-07T06:20:45.980Z,7.10
2018-11-07T06:23:15.080Z,4.07
2018-11-07T06:25:44.300Z,5.47
2018-11-07T06:28:13.470Z,4.63
2018-11-07T06:30:42.541Z,4.77
2018-11-07T06:33:11.672Z,5.67
2018-11-07T06:35:40.859Z,6.87
2018-11-07T06:38:10.008Z,8.07
2018-11-07T06:40:39.288Z,9.10
2018-11-07T06:43:09.437Z,3.27
2018-11-07T06:45:38.571Z,6.97
2018-11-07T06:48:07.854Z,6.77
2018-11-07T06:50:36.959Z,5.80
2018-11-07T06:53:06.061Z,9.53
2018-11-07T06:55:35.309Z,7.00
2018-11-07T06:58:04.340Z,4.50
2018-11-07T07:00:35.167Z,6.97
2018-11-07T07:03:05.174Z,11.47
2018-11-07T07:05:34.288Z,5.13
2018-11-07T07:08:03.410Z,5.77
2018-11-07T07:10:32.595Z,8.10
2018-11-07T07:13:01.706Z,5.87
2018-11-07T07:15:31.952Z,9.57
2018-11-07T07:18:01.052Z,4.37
2018-11-07T07:20:30.208Z,4.03
2018-11-07T07:22:59.337Z,3.77
2018-11-07T07:25:28.920Z,5.70
2018-11-07T07:27:58.211Z,5.20
2018-11-07T07:30:27.432Z,9.30
2018-11-07T07:32:56.590Z,5.83
2018-11-07T07:35:25.638Z,10.27
2018-11-07T07:37:54.719Z,8.70
2018-11-07T07:40:23.809Z,4.73
2018-11-07T07:42:52.884Z,6.27
2018-11-07T07:45:21.985Z,6.30
2018-11-07T07:47:51.125Z,5.80
2018-11-07T07:50:20.297Z,11.67
2018-11-07T07:52:49.431Z,4.80
2018-11-07T07:55:18.679Z,6.13
2018-11-07T07:57:47.776Z,7.73
2018-11-07T08:00:19.227Z,6.70
2018-11-07T08:02:49.558Z,5.37
2018-11-07T08:05:18.676Z,6.37
2018-11-07T08:07:47.995Z,11.10
2018-11-07T08:10:19.313Z,12.73
2018-11-07T08:12:49.067Z,5.80
2018-11-07T08:15:18.752Z,7.83
2018-11-07T08:17:47.880Z,9.67
2018-11-07T08:20:17.892Z,10.27
2018-11-07T08:22:47.851Z,8.23
2018-11-07T08:25:16.961Z,9.10
2018-11-07T08:27:46.071Z,12.30
2018-11-07T08:30:16.391Z,6.73
2018-11-07T08:32:45.503Z,6.60
2018-11-07T08:35:15.466Z,7.63
2018-11-07T08:37:45.310Z,5.90
2018-11-07T08:40:16.827Z,7.20
2018-11-07T08:42:45.926Z,7.37
2018-11-07T08:45:15.287Z,7.27
2018-11-07T08:47:45.340Z,8.80
2018-11-07T08:50:20.029Z,7.67
2018-11-07T08:52:49.561Z,5.87
2018-11-07T08:55:19.853Z,4.37
2018-11-07T08:57:49.004Z,4.60
2018-11-07T09:00:20.312Z,5.90
2018-11-07T09:02:49.537Z,11.60
2018-11-07T09:05:19.609Z,9.30
2018-11-07T09:07:49.155Z,6.87
2018-11-07T09:10:19.591Z,5.93
2018-11-07T09:12:48.793Z,8.37
2018-11-07T09:15:19.063Z,7.47
2018-11-07T09:17:48.225Z,7.63
2018-11-07T09:20:18.741Z,9.10
2018-11-07T09:22:47.828Z,7.23
2018-11-07T09:25:17.232Z,9.20
2018-11-07T09:27:46.742Z,7.70
2018-11-07T09:30:17.227Z,7.70
2018-11-07T09:32:46.317Z,10.20
2018-11-07T09:35:15.529Z,7.70
2018-11-07T09:37:44.803Z,8.40
2018-11-07T09:40:17.193Z,8.70
2018-11-07T09:42:47.125Z,7.70
2018-11-07T09:45:17.423Z,6.10
2018-11-07T09:47:47.252Z,8.97
2018-11-07T09:50:17.394Z,11.37
2018-11-07T09:52:46.665Z,9.33
2018-11-07T09:55:18.012Z,8.97
2018-11-07T09:57:47.092Z,7.20
2018-11-07T10:00:17.699Z,12.77
2018-11-07T10:02:47.236Z,9.73
2018-11-07T10:05:22.271Z,10.70
2018-11-07T10:07:51.421Z,6.80
2018-11-07T10:10:21.743Z,6.97
2018-11-07T10:12:51.261Z,10.93
2018-11-07T10:15:20.873Z,10.23
2018-11-07T10:17:49.973Z,8.33
2018-11-07T10:20:20.371Z,7.00
2018-11-07T10:22:49.724Z,12.20
2018-11-07T10:25:18.990Z,8.03
2018-11-07T10:27:48.220Z,8.33
2018-11-07T10:30:18.736Z,9.30
2018-11-07T10:32:48.653Z,6.97
2018-11-07T10:35:17.901Z,15.60
2018-11-07T10:37:47.043Z,10.80
2018-11-07T10:40:19.634Z,11.00
2018-11-07T10:42:49.077Z,10.87
2018-11-07T10:45:18.210Z,7.13
2018-11-07T10:47:48.039Z,6.90
2018-11-07T10:50:18.075Z,8.53
2018-11-07T10:52:47.598Z,10.67
2018-11-07T10:55:17.181Z,8.03
2018-11-07T10:58:49.806Z,10.20
2018-11-07T11:01:24.217Z,9.70
2018-11-07T11:03:53.425Z,7.07
2018-11-07T11:06:22.521Z,9.43
2018-11-07T11:08:51.921Z,7.60
2018-11-07T11:11:21.161Z,13.07
2018-11-07T11:13:50.309Z,11.30
2018-11-07T11:16:19.369Z,10.90
2018-11-07T11:18:48.601Z,10.27
2018-11-07T11:21:17.763Z,7.97
2018-11-07T11:23:46.897Z,12.57
2018-11-07T11:26:16.098Z,7.47
2018-11-07T11:28:45.221Z,8.07
2018-11-07T11:31:14.325Z,6.70
2018-11-07T11:33:43.599Z,6.77
2018-11-07T11:36:12.661Z,4.70
2018-11-07T11:38:41.758Z,6.20
2018-11-07T11:41:11.029Z,7.00
2018-11-07T11:43:40.209Z,4.30
2018-11-07T11:46:09.280Z,4.40
2018-11-07T11:48:38.384Z,5.50
2018-11-07T11:51:07.662Z,5.00
2018-11-07T11:53:36.876Z,5.40
2018-11-07T11:56:06.427Z,4.80
2018-11-07T11:58:35.584Z,3.50
2018-11-07T12:01:04.912Z,2.90
2018-11-07T12:03:34.160Z,3.05
2018-11-07T12:06:03.212Z,2.80
2018-11-07T12:08:32.506Z,3.77
2018-11-07T12:11:01.549Z,2.45
2018-11-07T12:13:30.699Z,4.85
2018-11-07T12:15:59.741Z,3.08
2018-11-07T12:18:28.820Z,2.55
2018-11-07T12:20:57.973Z,3.08
2018-11-07T12:23:27.040Z,4.30
2018-11-07T12:25:56.125Z,2.70
2018-11-07T12:28:25.213Z,3.52
2018-11-07T12:30:54.252Z,2.42
2018-11-07T12:33:23.317Z,4.80
2018-11-07T12:35:52.389Z,3.72
2018-11-07T12:38:21.459Z,2.98
2018-11-07T12:40:50.617Z,3.22
2018-11-07T12:43:19.684Z,3.67
2018-11-07T12:45:48.849Z,4.12
2018-11-07T12:48:17.940Z,3.30
2018-11-07T12:50:47.077Z,3.60
2018-11-07T12:53:16.220Z,3.00
2018-11-07T12:55:45.292Z,3.25
2018-11-07T12:58:14.485Z,4.97
2018-11-07T13:00:43.463Z,6.90
2018-11-07T13:03:12.601Z,3.83
2018-11-07T13:05:41.642Z,2.80
2018-11-07T13:08:10.881Z,3.90
2018-11-07T13:10:40.078Z,3.35
2018-11-07T13:13:09.153Z,4.15
2018-11-07T13:15:38.321Z,3.80
2018-11-07T13:18:07.459Z,5.70
2018-11-07T13:20:36.528Z,4.33
2018-11-07T13:23:05.592Z,5.20
2018-11-07T13:25:34.753Z,5.05
2018-11-07T13:28:04.067Z,6.92
2018-11-07T13:30:33.085Z,5.05
2018-11-07T13:33:02.224Z,5.42
2018-11-07T13:35:31.292Z,10.40
2018-11-07T13:38:00.521Z,5.62
2018-11-07T13:40:29.543Z,4.17
2018-11-07T13:42:58.703Z,5.87
2018-11-07T13:45:27.819Z,4.03
2018-11-07T13:47:57.082Z,4.12
2018-11-07T13:50:26.279Z,5.47
2018-11-07T13:52:55.425Z,4.40
2018-11-07T13:55:24.487Z,3.50
2018-11-07T13:57:53.577Z,3.77
2018-11-07T14:00:23.658Z,3.17
2018-11-07T14:02:53.669Z,3.80
2018-11-07T14:05:22.822Z,3.83
2018-11-07T14:07:51.801Z,4.10
2018-11-07T14:10:22.875Z,4.55
2018-11-07T14:12:52.244Z,3.67
2018-11-07T14:15:21.498Z,3.65
2018-11-07T14:17:50.967Z,3.27
2018-11-07T14:20:20.029Z,4.05
2018-11-07T14:22:49.091Z,5.33
2018-11-07T14:25:18.283Z,7.67
2018-11-07T14:27:47.527Z,4.35
2018-11-07T14:30:18.082Z,3.30
2018-11-07T14:32:50.886Z,4.58
2018-11-07T14:35:19.928Z,4.62
2018-11-07T14:37:49.285Z,4.53
2018-11-07T14:40:18.432Z,5.95
2018-11-07T14:42:47.541Z,5.30
2018-11-07T14:45:16.619Z,5.25
2018-11-07T14:47:45.799Z,7.07
2018-11-07T14:50:15.172Z,7.17
2018-11-07T14:52:44.311Z,10.37
2018-11-07T14:55:13.768Z,6.93
2018-11-07T14:57:42.900Z,9.13
2018-11-07T15:00:13.496Z,7.37
2018-11-07T15:02:43.449Z,5.93
2018-11-07T15:05:13.527Z,11.20
2018-11-07T15:07:43.463Z,9.27
2018-11-07T15:10:13.582Z,7.83
2018-11-07T15:12:42.685Z,11.87
2018-11-07T15:15:13.092Z,7.53
2018-11-07T15:17:42.371Z,11.60
2018-11-07T15:20:12.650Z,13.17
2018-11-07T15:22:41.936Z,13.50
2018-11-07T15:25:12.583Z,12.37
2018-11-07T15:27:42.923Z,8.60
2018-11-07T15:30:12.916Z,12.43
2018-11-07T15:32:42.690Z,12.50
2018-11-07T15:35:12.302Z,13.57
2018-11-07T15:37:41.625Z,19.70
2018-11-07T15:40:12.950Z,14.50
2018-11-07T15:42:42.512Z,13.37
2018-11-07T15:45:13.345Z,13.83
2018-11-07T15:47:42.704Z,18.40
2018-11-07T15:50:17.057Z,16.83
2018-11-07T15:52:47.084Z,16.50
2018-11-07T15:55:16.216Z,14.60
2018-11-07T15:57:45.453Z,19.03
2018-11-07T16:00:16.871Z,11.73
2018-11-07T16:02:46.214Z,18.07
2018-11-07T16:05:16.241Z,16.37
2018-11-07T16:07:45.634Z,15.23
2018-11-07T16:10:15.559Z,21.40
2018-11-07T16:12:44.643Z,16.13
2018-11-07T16:15:15.317Z,26.20
2018-11-07T16:17:44.571Z,23.80
2018-11-07T16:20:15.980Z,15.60
2018-11-07T16:22:45.926Z,17.37
2018-11-07T16:25:15.056Z,18.13
2018-11-07T16:27:44.557Z,21.53
2018-11-07T16:30:16.026Z,23.00
2018-11-07T16:32:45.198Z,25.30
2018-11-07T16:35:14.752Z,18.93
2018-11-07T16:37:44.356Z,25.63
2018-11-07T16:40:15.813Z,16.90
2018-11-07T16:42:45.351Z,19.40
2018-11-07T16:45:15.593Z,18.90
2018-11-07T16:47:44.993Z,29.77
2018-11-07T16:50:15.125Z,19.67
2018-11-07T16:52:44.296Z,22.57
2018-11-07T16:55:13.480Z,16.53
2018-11-07T16:57:43.153Z,13.80
2018-11-07T17:00:17.375Z,12.67
2018-11-07T17:02:46.821Z,18.00
2018-11-07T17:05:16.443Z,18.23
2018-11-07T17:07:46.035Z,12.80
2018-11-07T17:10:15.413Z,23.03
2018-11-07T17:12:44.639Z,16.87
2018-11-07T17:15:13.866Z,15.40
2018-11-07T17:17:43.015Z,13.83
2018-11-07T17:20:13.478Z,19.60
2018-11-07T17:22:43.097Z,15.20
2018-11-07T17:25:14.771Z,14.37
2018-11-07T17:27:44.128Z,17.20
2018-11-07T17:30:14.576Z,17.00
2018-11-07T17:32:43.949Z,15.00
2018-11-07T17:35:14.227Z,11.10
2018-11-07T17:37:43.797Z,19.77
2018-11-07T17:40:15.986Z,18.00
2018-11-07T17:42:46.426Z,17.03
2018-11-07T17:45:17.309Z,16.03
2018-11-07T17:47:47.055Z,15.93
2018-11-07T17:50:17.165Z,20.80
2018-11-07T17:52:46.304Z,18.87
2018-11-07T17:55:16.968Z,20.70
2018-11-07T17:57:46.089Z,23.87
2018-11-07T18:00:19.538Z,21.13
2018-11-07T18:02:54.917Z,17.60
2018-11-07T18:05:24.043Z,15.20
2018-11-07T18:07:53.195Z,18.47
2018-11-07T18:10:22.290Z,24.43
2018-11-07T18:12:51.491Z,22.43
2018-11-07T18:15:20.581Z,21.57
2018-11-07T18:17:49.693Z,20.40
2018-11-07T18:20:19.227Z,23.47
2018-11-07T18:22:48.302Z,16.50
2018-11-07T18:25:18.049Z,16.23
2018-11-07T18:27:47.244Z,22.40
2018-11-07T18:30:17.294Z,22.53
2018-11-07T18:32:47.220Z,20.27
2018-11-07T18:35:17.726Z,14.73
2018-11-07T18:37:47.011Z,21.43
2018-11-07T18:40:17.389Z,16.27
2018-11-07T18:42:47.124Z,24.67
2018-11-07T18:45:16.545Z,19.13
2018-11-07T18:47:46.687Z,17.40
2018-11-07T18:50:17.388Z,14.50
2018-11-07T18:52:46.358Z,24.40
2018-11-07T18:55:16.452Z,18.13
2018-11-07T18:57:46.119Z,16.87
2018-11-07T19:00:16.880Z,17.50
2018-11-07T19:02:46.520Z,17.80
2018-11-07T19:05:15.623Z,17.73
2018-11-07T19:07:45.112Z,19.73
2018-11-07T19:10:16.208Z,16.17
2018-11-07T19:12:46.092Z,19.10
2018-11-07T19:15:15.972Z,20.43
2018-11-07T19:17:45.968Z,21.50
2018-11-07T19:20:15.976Z,20.60
2018-11-07T19:22:45.132Z,17.53
2018-11-07T19:25:15.730Z,21.90
2018-11-07T19:27:44.820Z,22.67
2018-11-07T19:30:17.489Z,21.40
2018-11-07T19:32:47.699Z,23.23
2018-11-07T19:35:17.653Z,23.73
2018-11-07T19:37:47.422Z,22.77
2018-11-07T19:40:19.078Z,18.60
2018-11-07T19:42:48.182Z,18.23
2018-11-07T19:45:18.491Z,18.87
2018-11-07T19:47:48.193Z,23.17
2018-11-07T19:50:18.541Z,19.50
2018-11-07T19:52:48.647Z,18.50
2018-11-07T19:55:19.653Z,14.97
2018-11-07T19:57:52.085Z,22.50
2018-11-07T20:00:21.229Z,21.00
2018-11-07T20:02:50.447Z,23.77
2018-11-07T20:05:19.632Z,28.43
2018-11-07T20:07:48.797Z,21.93
2018-11-07T20:10:19.302Z,28.13
2018-11-07T20:12:48.446Z,18.10
2018-11-07T20:15:18.611Z,25.20
2018-11-07T20:17:48.103Z,19.77
2018-11-07T20:20:17.230Z,19.73
2018-11-07T20:22:46.423Z,20.20
2018-11-07T20:25:15.879Z,17.70
2018-11-07T20:27:45.436Z,20.97
2018-11-07T20:30:15.943Z,20.53
2018-11-07T20:32:45.262Z,18.20
2018-11-07T20:35:15.797Z,17.13
2018-11-07T20:37:44.884Z,20.10
2018-11-07T20:40:15.416Z,19.70
2018-11-07T20:42:44.512Z,15.80
2018-11-07T20:45:14.502Z,23.57
2018-11-07T20:47:43.652Z,21.93
2018-11-07T20:50:14.419Z,19.53
2018-11-07T20:52:44.029Z,22.00
2018-11-07T20:55:13.725Z,14.37
2018-11-07T20:57:42.888Z,17.47
2018-11-07T21:00:14.281Z,11.93
2018-11-07T21:02:44.051Z,15.77
2018-11-07T21:05:13.307Z,11.70
2018-11-07T21:07:42.634Z,16.57
2018-11-07T21:10:13.945Z,16.23
2018-11-07T21:12:44.239Z,14.67
2018-11-07T21:15:14.729Z,14.10
2018-11-07T21:17:44.341Z,16.63
2018-11-07T21:20:13.517Z,16.97
2018-11-07T21:22:43.038Z,22.00
2018-11-07T21:25:12.647Z,14.90
2018-11-07T21:27:41.844Z,18.60
2018-11-07T21:30:12.318Z,22.57
2018-11-07T21:32:41.777Z,13.33
2018-11-07T21:35:10.996Z,14.90
2018-11-07T21:37:40.583Z,11.33
2018-11-07T21:40:13.692Z,17.40
2018-11-07T21:42:43.079Z,17.17
2018-11-07T21:45:13.261Z,18.00
2018-11-07T21:47:42.765Z,13.83
2018-11-07T21:50:13.311Z,14.73
2018-11-07T21:52:42.419Z,11.90
2018-11-07T21:55:11.555Z,12.30
2018-11-07T21:57:40.661Z,18.70
2018-11-07T22:00:11.670Z,17.97
2018-11-07T22:02:40.861Z,12.00
2018-11-07T22:05:10.939Z,16.33
2018-11-07T22:07:40.232Z,15.97
2018-11-07T22:10:10.555Z,12.50
2018-11-07T22:12:39.698Z,16.03
2018-11-07T22:15:09.586Z,16.70
2018-11-07T22:17:38.648Z,13.90
2018-11-07T22:20:09.971Z,17.40
2018-11-07T22:22:39.082Z,15.53
2018-11-07T22:25:08.237Z,16.47
2018-11-07T22:27:37.380Z,12.97
2018-11-07T22:30:11.516Z,19.53
2018-11-07T22:32:40.933Z,16.97
2018-11-07T22:35:11.617Z,23.67
2018-11-07T22:37:40.851Z,20.03
2018-11-07T22:40:11.677Z,14.23
2018-11-07T22:42:40.813Z,18.57
2018-11-07T22:45:10.824Z,16.00
2018-11-07T22:47:40.293Z,17.43
2018-11-07T22:50:10.933Z,14.20
2018-11-07T22:52:40.723Z,15.50
2018-11-07T22:55:09.996Z,14.50
2018-11-07T22:57:39.241Z,19.10
2018-11-07T23:00:18.228Z,15.43
2018-11-07T23:02:48.117Z,16.93
2018-11-07T23:05:17.809Z,17.77
2018-11-07T23:07:46.973Z,15.93
2018-11-07T23:10:16.055Z,9.53
2018-11-07T23:12:45.165Z,11.43
2018-11-07T23:15:19.677Z,16.70
2018-11-07T23:17:48.894Z,17.70
2018-11-07T23:20:18.042Z,24.60
2018-11-07T23:22:47.231Z,11.53
2018-11-07T23:25:16.325Z,16.60
2018-11-07T23:27:45.791Z,19.63
2018-11-07T23:30:14.863Z,13.07
2018-11-07T23:32:44.471Z,17.10
2018-11-07T23:35:13.541Z,13.40
2018-11-07T23:37:42.676Z,19.37
2018-11-07T23:40:11.821Z,58.03
2018-11-07T23:42:40.893Z,14.40
2018-11-07T23:45:10.017Z,20.20
2018-11-07T23:47:39.117Z,16.10
2018-11-07T23:50:08.657Z,17.90
2018-11-07T23:52:42.972Z,12.87
2018-11-07T23:55:12.052Z,11.27
2018-11-07T23:57:41.223Z,17.00
